Farley, New Mexico
Current Conditions -  °F | °C
As of 9:55 PM on Friday 31 Oct 2014 (Local Time) from KCAO Reporting Station
Clear Clear  
Wind Chill: 39°   Ceiling: Unl
Heat Index: 45°   Visibility: 10mi
Dew Point: 29°   Wind: 12mph
Humidity: 53%   Direction: 200°SSW
Pressure: 30.27"   Gusts: NA
Location:  36.316°N, 103.86°W
Report Text: KCAO 010355Z AUTO 20010KT 10SM CLR 07/M02 A3027 RMK AO2 SLP235 T00721017
Loading
Personal Weather Stations






























Interactive Weather Map
Tropical Storm Tracking
New forecast layout! Learn more

10-Day Weather Forecast

Advertisements
Track Severe Weather on mobile